Terminal Aerodrome Forecast
Issued by NWS

Home | Current Version | Previous Version | Text Only | Print | Product List | Glossary On
Versions: 1 2 3 4 5 6 7 8 9 10 11 12 13 14 15
115
FTUS44 KMAF 302321
TAFHOB
TAF
KHOB 302321Z 0100/0124 19011KT P6SM SCT120
     FM010700 06015G25KT P6SM BKN100
     FM011200 02022G30KT P6SM OVC020
     FM011800 02015KT P6SM OVC035=

USA.gov is the U.S. government's official web portal to all federal, state and local government web resources and services.